Etusivu
METAR-TAF:

METAR-TAF

Lentoasemat :

Porter County Municipal Airport

Valparaiso, Indiana, Yhdysvallat

Leveyspiiri: 41-27-11N, Pituuspiiri: 086-59-53W, korkeus merenpinnasta: 234 m

Tämänhetkinen sää

Tämä raportti tehtiin 29 minuuttia sitten, kello 08.56 UTC
tyyntä
Lämpötila 14°C
Kosteus 94%
Ilmanpaine 1014 hPa
Näkyvyys: 16.1 km
selkeää

METAR: KVPZ 130856Z AUTO 00000KT 10SM CLR 14/13 A2994 RMK AO2 SLP134 T01440128 58004

Aika: 04:25 (09:25 UTC)


TAF: puuttuu

Säähavainnot ja -ennusteet yli 4000 lentoasemalta (METAR- ja TAF-raportit).

Käytössä olevat sääasemat on merkitty karttaan keltaisilla ja punaisilla pisteillä.

Aseta hiiri pisteen päälle nähdäksesi sääaseman nimen.

Klikkaa sitten nähdäksesi säähavainnot ja -ennusteet.

Kartan vaihtaminen: klikkaa mustalla rastilla varustettuja vihreitä pisteitä, niin voit zoomata sisään; viivalla varustettua vihreää pistettä, niin voit zoomata ulos tai vihreitä nuolia, niin pääset viereisille kartoille.


METAR-TAF: